Osseo, Michigan
Current Conditions -  °F | °C
As of 1:55 AM on Friday 19 Dec 2014 (Local Time) from KJYM Reporting Station
Haze Haze  
Wind Chill: 20°   Ceiling: 500
Heat Index: 28°   Visibility: 5mi
Dew Point: 27°   Wind: 7mph
Humidity: 98%   Direction: 280°W
Pressure: 30.17"   Gusts: NA
Location:  41.89°N, 84.54°W
Report Text: KJYM 190655Z AUTO 28006KT 5SM BR OVC005 M02/M03 A3017 RMK AO2 T10241027
Loading
Personal Weather Stations






























Interactive Weather Map New forecast layout! Learn more

10-Day Weather Forecast

Advertisements
Track Severe Weather on mobile